• Join FlightAware (Why Join?)
  • Login
  • US Flag 
07:32PM EST


 

Airport Tracker/Info


-or-


 

Live Flight TrackerFlight Track Log ✈ SWA1718 ✈ 17-Apr-2013 ✈ KAMA - KDEN

Flight Track Log - Related Links

Times and Time Zones

All times are in EDT time to prevent confusion due to time zone crossing. See the SWA1718 flight status page for this flight to view local times or setup timezone preferences in your user account.

Time Position Orientation Groundspeed Altitude Reporting Facility
EDT Latitude Longitude Course Direction KTS MPH feet Rate Location/Type
05:02PM 35.4603 -101.7958 339° North 318 366 10,900  Level Albuquerque Center
05:03PM 35.5558 -101.8411 339° North 354 407 13,800 2,640 Climbing Albuquerque Center
05:04PM 35.6558 -101.8875 339° North 375 432 16,400 2,700 Climbing Albuquerque Center
05:05PM 35.8145 -101.9691 342° North  Level FlightAware Approximate
05:05PM 35.7575 -101.9347 339° North 388 447 19,500  Level Albuquerque Center
05:06PM 35.9126 -102.0209 345° North  Level FlightAware Approximate
05:06PM 35.8619 -101.9842 339° North 397 457 21,500  Level Albuquerque Center
05:07PM 35.9942 -102.0458 339° North 417 480 23,700 2,040 Climbing Albuquerque Center
05:08PM 36.1081 -102.0992 339° North 433 498 25,800 1,980 Climbing Albuquerque Center
05:09PM 36.2214 -102.1531 339° North 437 503 27,800 1,500 Climbing Albuquerque Center
05:10PM 36.3358 -102.2056 340° North 437 503 29,000 1,200 Climbing Albuquerque Center
05:11PM 36.4533 -102.2633 338° Northwest 448 516 30,300 1,200 Climbing Albuquerque Center
05:12PM 36.5733 -102.3208 339° North 460 529 31,500 1,740 Climbing Albuquerque Center
05:13PM 36.7147 -102.3864 340° North 454 522 34,000 1,200 Climbing Albuquerque Center
05:14PM 36.8289 -102.4444 338° Northwest 444 511 34,000  Level Albuquerque Center
05:15PM 36.9567 -102.5053 339° North 455 524 34,000  Level Albuquerque Center
05:16PM 37.0658 -102.5578 339° North 458 527 34,000  Level Albuquerque Center
05:17PM 37.1972 -102.6225 339° North 456 525 34,000  Level Albuquerque Center
05:18PM 37.3103 -102.6772 339° North 455 524 34,000  Level Albuquerque Center
05:19PM 37.4011 -102.7214 339° North 449 517 34,000  Level Denver Center
05:20PM 37.5125 -102.7764 339° North 449 517 34,000  Level Denver Center
05:21PM 37.6514 -102.8211 346° North 460 529 34,000  Level Denver Center
05:22PM 37.7722 -102.8600 346° North 467 537 34,000  Level Denver Center
05:23PM 37.8997 -102.9369 335° Northwest 456 525 34,000  Level Denver Center
05:24PM 37.9994 -103.0242 325° Northwest 453 521 34,000  Level Denver Center
05:25PM 38.1103 -103.1175 326° Northwest 459 528 34,000  Level Denver Center
05:26PM 38.2192 -103.2125 326° Northwest 461 531 34,000  Level Denver Center
05:27PM 38.3311 -103.3089 326° Northwest 464 534 34,000  Level Denver Center
05:28PM 38.4319 -103.3944 326° Northwest 457 526 34,000  Level Denver Center
05:29PM 38.5361 -103.4867 325° Northwest 447 514 34,000  Level Denver Center
05:30PM 38.6372 -103.5742 326° Northwest 458 527 34,000 -1,260 Level Denver Center
05:31PM 38.7564 -103.6811 325° Northwest 469 540 31,500 -3,120 Descending Denver Center
05:32PM 38.8614 -103.7728 326° Northwest 470 541 27,700 -3,180 Descending Denver Center
05:33PM 38.9706 -103.8661 326° Northwest 467 537 25,000 -2,640 Descending Denver Center
05:34PM 39.0739 -103.9586 325° Northwest 452 520 22,300 -2,640 Descending Denver Center
05:35PM 39.1747 -104.0486 325° Northwest 443 510 19,700 -2,040 Descending Denver Center
05:36PM 39.2656 -104.1569 317° Northwest 379 436 18,200 -1,080 Descending Denver Center
05:37PM 39.2903 -104.2542 288° West 287 330 17,500 -1,260 Descending Denver Center
05:38PM 39.3097 -104.3444 286° West 265 305 15,700 -1,500 Descending Denver Center
05:39PM 39.3303 -104.4314 287° West 251 289 14,500 -1,200 Descending Denver Center
05:40PM 39.3475 -104.5178 284° West 230 265 13,300 -1,140 Descending Denver Center
05:41PM 39.3603 -104.5997 281° West 231 266 12,200 -1,080 Descending Denver Center
05:42PM 39.3822 -104.6675 293° West 222 255 11,200 -1,080 Descending Denver Center
05:43PM 39.4403 -104.6639 North 193 222 10,100 -600 Descending Denver Center
05:44PM 39.4908 -104.6647 359° North 182 209 10,000 -60 Descending Denver Center
05:45PM 39.5428 -104.6647 360° North 187 215 10,000  Level Denver Center
05:46PM 39.5928 -104.6639 North 181 208 10,000 -480 Level Denver Center
05:47PM 39.6489 -104.6628 North 184 212 9,100 -900 Descending Denver Center
05:48PM 39.6975 -104.6622 North 179 206 8,200 -960 Descending Denver Center
05:49PM 39.7433 -104.6619 360° North 168 193 7,200 -840 Descending Denver Center
05:50PM 39.7786 -104.6611 North 122 140 6,500 -720 Descending Denver Center
05:52PM 39.8119 -104.6608 360° North 118 136 5,800 -540 Descending Denver Center
05:53PM 39.8425 -104.6617 359° North 111 128 5,400 -420 Descending Denver Center
05:55PM 39.8500 -104.6667 North  Level FlightAware Approximate
06:02PM 39.8617 -104.6732 North  Level Estimated